Time;durP1;ratioP1;P1;durP2;ratioP2;P2;SDS_P1;SDS_P2;PMS_P1;PMS_P2;Temp;Humidity;BMP_temperature;BMP_pressure;BME280_temperature;BME280_humidity;BME280_pressure;Samples;Min_cycle;Max_cycle;Signal;HPM_P1;HPM_P2
2022/08/09 00:01:55;;;;;;;3.10;2.90;;;;;;;;;;5043833;28;20202;-78
2022/08/09 00:04:22;;;;;;;3.40;3.00;;;;;;;;;;5035209;28;20256;-78
2022/08/09 00:06:49;;;;;;;3.90;3.50;;;;;;;;;;5033208;28;20210;-78
2022/08/09 00:09:16;;;;;;;3.53;3.23;;;;;;;;;;5040281;28;20229;-78
2022/08/09 00:11:44;;;;;;;3.53;3.10;;;;;;;;;;5049096;28;20266;-78
2022/08/09 00:14:11;;;;;;;4.23;2.93;;;;;;;;;;5033121;28;20203;-78
2022/08/09 00:16:37;;;;;;;3.40;3.10;;;;;;;;;;5033144;28;20194;-78
2022/08/09 00:19:06;;;;;;;11.63;4.30;;;;;;;;;;5033297;28;20198;-78
2022/08/09 00:21:33;;;;;;;2.97;2.77;;;;;;;;;;5032398;28;20198;-78
2022/08/09 00:24:00;;;;;;;4.47;3.37;;;;;;;;;;5032240;28;20202;-78
2022/08/09 00:26:28;;;;;;;7.23;3.50;;;;;;;;;;5035960;28;20194;-78
2022/08/09 00:28:55;;;;;;;11.20;4.83;;;;;;;;;;5039649;28;20198;-78
2022/08/09 00:31:22;;;;;;;4.07;3.20;;;;;;;;;;5035976;28;20205;-78
2022/08/09 00:33:49;;;;;;;3.90;3.33;;;;;;;;;;5039612;28;20195;-77
2022/08/09 00:36:17;;;;;;;3.27;3.00;;;;;;;;;;5032089;28;20207;-78
2022/08/09 00:38:44;;;;;;;5.23;3.03;;;;;;;;;;5033664;28;20202;-78
2022/08/09 00:41:12;;;;;;;3.30;3.10;;;;;;;;;;5032635;28;20199;-78
2022/08/09 00:43:39;;;;;;;3.70;3.17;;;;;;;;;;5052824;28;20233;-78
2022/08/09 00:46:08;;;;;;;4.50;4.10;;;;;;;;;;5044659;28;20248;-78
2022/08/09 00:48:35;;;;;;;6.17;3.67;;;;;;;;;;5052517;28;20618;-78
2022/08/09 00:51:03;;;;;;;3.00;2.80;;;;;;;;;;5032348;28;20206;-77
2022/08/09 00:53:31;;;;;;;6.17;3.20;;;;;;;;;;5037778;28;20253;-78
2022/08/09 00:55:58;;;;;;;3.60;3.10;;;;;;;;;;5035028;28;20202;-78
2022/08/09 00:58:25;;;;;;;5.03;3.63;;;;;;;;;;5042389;28;20587;-78
2022/08/09 01:00:54;;;;;;;6.87;3.93;;;;;;;;;;5032331;28;20201;-78
2022/08/09 01:03:28;;;;;;;4.00;3.60;;;;;;;;;;5043707;28;20206;-78
2022/08/09 01:05:59;;;;;;;5.53;3.37;;;;;;;;;;5037552;28;20665;-78
2022/08/09 01:08:33;;;;;;;3.50;3.20;;;;;;;;;;5049947;28;20205;-78
2022/08/09 01:11:10;;;;;;;5.07;3.10;;;;;;;;;;5051608;28;20312;-79
2022/08/09 01:13:40;;;;;;;13.90;4.30;;;;;;;;;;5042625;28;20213;-78
2022/08/09 01:16:08;;;;;;;3.13;2.93;;;;;;;;;;5032285;28;20609;-78
2022/08/09 01:18:35;;;;;;;4.87;3.30;;;;;;;;;;5035742;28;20210;-78
2022/08/09 01:21:17;;;;;;;4.47;3.80;;;;;;;;;;5040566;28;20661;-78
2022/08/09 01:23:57;;;;;;;6.67;3.50;;;;;;;;;;5048762;28;20194;-78
2022/08/09 01:27:00;;;;;;;4.53;3.77;;;;;;;;;;5051283;28;20229;-78
2022/08/09 01:29:31;;;;;;;3.20;2.90;;;;;;;;;;5049513;28;20315;-78
2022/08/09 01:32:01;;;;;;;5.27;3.47;;;;;;;;;;5035482;28;20229;-79
2022/08/09 01:34:29;;;;;;;4.53;3.73;;;;;;;;;;5031512;28;20199;-79
2022/08/09 01:36:58;;;;;;;3.57;3.27;;;;;;;;;;5031263;28;20285;-78
2022/08/09 01:39:26;;;;;;;3.93;3.10;;;;;;;;;;5032557;28;20256;-78
2022/08/09 01:41:56;;;;;;;4.10;3.33;;;;;;;;;;5047234;28;20198;-78
2022/08/09 01:44:23;;;;;;;3.87;2.97;;;;;;;;;;5031307;28;20195;-78
2022/08/09 01:46:51;;;;;;;3.93;2.93;;;;;;;;;;5031914;28;20288;-78
2022/08/09 01:49:20;;;;;;;2.80;2.60;;;;;;;;;;5030064;28;20221;-78
2022/08/09 01:51:48;;;;;;;4.30;2.70;;;;;;;;;;5031514;28;20201;-78
2022/08/09 01:54:16;;;;;;;3.40;3.20;;;;;;;;;;5031200;28;20191;-78
2022/08/09 01:56:45;;;;;;;3.70;3.10;;;;;;;;;;5040472;28;20202;-78
2022/08/09 01:59:16;;;;;;;2.83;2.63;;;;;;;;;;5033195;28;20724;-78
2022/08/09 02:01:44;;;;;;;6.67;3.23;;;;;;;;;;5031031;28;20661;-78
2022/08/09 02:04:13;;;;;;;4.80;2.70;;;;;;;;;;5030970;28;20194;-79
2022/08/09 02:09:26;;;;;;;8.93;2.97;;;;;;;;;;5031100;28;20704;-78
2022/08/09 02:11:54;;;;;;;9.53;3.40;;;;;;;;;;5031447;28;20230;-78
2022/08/09 02:14:22;;;;;;;3.63;2.63;;;;;;;;;;5030781;28;20205;-78
2022/08/09 02:16:50;;;;;;;4.03;2.77;;;;;;;;;;5045540;28;20652;-80
2022/08/09 02:19:16;;;;;;;6.00;2.80;;;;;;;;;;5031288;28;20742;-81
2022/08/09 02:21:47;;;;;;;5.07;3.07;;;;;;;;;;5030228;28;20248;-80
2022/08/09 02:24:18;;;;;;;7.53;2.93;;;;;;;;;;5038215;28;20212;-78
2022/08/09 02:26:49;;;;;;;5.30;2.80;;;;;;;;;;5041688;28;20216;-78
2022/08/09 02:29:20;;;;;;;5.50;3.00;;;;;;;;;;5052478;28;20205;-77
2022/08/09 02:31:49;;;;;;;8.67;2.97;;;;;;;;;;5043569;28;20194;-78
2022/08/09 02:34:18;;;;;;;3.20;2.90;;;;;;;;;;5031939;28;20209;-79
2022/08/09 02:36:51;;;;;;;2.87;2.00;;;;;;;;;;5035015;28;20285;-79
2022/08/09 02:39:21;;;;;;;4.80;2.67;;;;;;;;;;5034161;28;20580;-79
2022/08/09 02:41:50;;;;;;;4.73;2.60;;;;;;;;;;5034493;28;20252;-78
2022/08/09 02:44:20;;;;;;;5.10;2.50;;;;;;;;;;5034029;28;20198;-79
2022/08/09 02:46:50;;;;;;;3.23;2.90;;;;;;;;;;5034323;28;20281;-79
2022/08/09 02:49:18;;;;;;;3.03;2.23;;;;;;;;;;5047943;28;20279;-79
2022/08/09 02:51:47;;;;;;;10.87;2.93;;;;;;;;;;5039408;28;20193;-78
2022/08/09 02:54:15;;;;;;;5.93;3.13;;;;;;;;;;5048671;28;20276;-78
2022/08/09 02:56:44;;;;;;;2.73;2.50;;;;;;;;;;5041607;28;20202;-78
2022/08/09 02:59:11;;;;;;;2.53;2.37;;;;;;;;;;5048685;28;20202;-78
2022/08/09 03:01:38;;;;;;;3.33;2.47;;;;;;;;;;5049845;28;20575;-78
2022/08/09 03:04:08;;;;;;;2.80;2.10;;;;;;;;;;5035117;28;20203;-78
2022/08/09 03:06:35;;;;;;;4.73;2.80;;;;;;;;;;5034306;28;20664;-78
2022/08/09 03:09:03;;;;;;;3.63;2.50;;;;;;;;;;5034290;28;20206;-77
2022/08/09 03:11:33;;;;;;;4.60;2.67;;;;;;;;;;5035074;28;20240;-78
2022/08/09 03:14:01;;;;;;;4.70;2.90;;;;;;;;;;5033726;28;20639;-79
2022/08/09 03:16:28;;;;;;;4.40;2.80;;;;;;;;;;5033782;28;20199;-79
2022/08/09 03:18:56;;;;;;;5.30;2.97;;;;;;;;;;5033754;28;20195;-78
2022/08/09 03:21:24;;;;;;;3.40;3.07;;;;;;;;;;5033628;28;20557;-78
2022/08/09 03:23:51;;;;;;;3.67;2.57;;;;;;;;;;5033628;28;20678;-79
2022/08/09 03:26:19;;;;;;;3.60;2.67;;;;;;;;;;5033713;28;20202;-79
2022/08/09 03:28:47;;;;;;;3.60;2.27;;;;;;;;;;5033663;28;20276;-79
2022/08/09 03:31:15;;;;;;;2.77;2.57;;;;;;;;;;5033498;28;20214;-79
2022/08/09 03:33:42;;;;;;;3.73;2.60;;;;;;;;;;5033327;28;20234;-79
2022/08/09 03:36:09;;;;;;;6.30;2.63;;;;;;;;;;5033162;28;20210;-78
2022/08/09 03:38:38;;;;;;;2.57;2.37;;;;;;;;;;5047537;28;20292;-78
2022/08/09 03:41:05;;;;;;;6.70;4.00;;;;;;;;;;5033575;28;20581;-79
2022/08/09 03:43:32;;;;;;;3.80;2.80;;;;;;;;;;5033159;28;20620;-79
2022/08/09 03:45:59;;;;;;;4.53;3.17;;;;;;;;;;5032758;28;20199;-78
2022/08/09 03:48:25;;;;;;;3.00;2.70;;;;;;;;;;5033112;28;20199;-78
2022/08/09 03:50:53;;;;;;;4.27;2.80;;;;;;;;;;5046622;28;20689;-78
2022/08/09 03:53:21;;;;;;;3.00;2.70;;;;;;;;;;5032871;28;20743;-78
2022/08/09 03:55:49;;;;;;;2.90;2.70;;;;;;;;;;5035625;28;20210;-78
2022/08/09 03:58:17;;;;;;;3.80;2.83;;;;;;;;;;5043685;28;20285;-79
2022/08/09 04:00:45;;;;;;;5.10;2.90;;;;;;;;;;5032838;28;20206;-79
2022/08/09 04:03:12;;;;;;;5.17;2.90;;;;;;;;;;5032776;28;20633;-78
2022/08/09 04:05:38;;;;;;;9.57;3.00;;;;;;;;;;5033360;28;20199;-77
2022/08/09 04:08:05;;;;;;;5.40;2.80;;;;;;;;;;5032268;28;20194;-81
2022/08/09 04:10:32;;;;;;;4.77;2.77;;;;;;;;;;5032749;28;20194;-79
2022/08/09 04:13:00;;;;;;;4.03;2.93;;;;;;;;;;5032740;28;20218;-80
2022/08/09 04:15:27;;;;;;;3.17;2.87;;;;;;;;;;5034749;28;20221;-80
2022/08/09 04:17:53;;;;;;;7.73;2.87;;;;;;;;;;5043780;28;20198;-80
2022/08/09 04:20:20;;;;;;;2.90;2.60;;;;;;;;;;5044276;28;20203;-80
2022/08/09 04:22:47;;;;;;;5.17;3.27;;;;;;;;;;5033848;28;20664;-79
2022/08/09 04:25:14;;;;;;;3.50;3.20;;;;;;;;;;5032323;28;20609;-79
2022/08/09 04:27:41;;;;;;;5.43;3.20;;;;;;;;;;5033202;28;20202;-79
2022/08/09 04:30:11;;;;;;;4.40;3.03;;;;;;;;;;5032541;28;20201;-79
2022/08/09 04:32:38;;;;;;;5.17;3.10;;;;;;;;;;5032950;28;20199;-79
2022/08/09 04:35:06;;;;;;;4.50;3.47;;;;;;;;;;5031989;28;20202;-79
2022/08/09 04:37:33;;;;;;;3.70;3.40;;;;;;;;;;5032533;28;20548;-79
2022/08/09 04:40:00;;;;;;;5.33;3.37;;;;;;;;;;5032755;28;20198;-79
2022/08/09 04:42:28;;;;;;;4.57;3.27;;;;;;;;;;5033074;28;20198;-79
2022/08/09 04:44:55;;;;;;;4.13;2.93;;;;;;;;;;5033064;28;20205;-79
2022/08/09 04:47:23;;;;;;;3.00;2.80;;;;;;;;;;5031648;28;20670;-79
2022/08/09 04:49:50;;;;;;;5.17;3.50;;;;;;;;;;5032937;28;20206;-80
2022/08/09 04:52:17;;;;;;;7.60;3.43;;;;;;;;;;5032415;28;22103;-80
2022/08/09 04:54:44;;;;;;;3.77;3.47;;;;;;;;;;5032327;28;20227;-80
2022/08/09 04:57:11;;;;;;;3.67;3.30;;;;;;;;;;5039796;28;20226;-80
2022/08/09 04:59:37;;;;;;;6.07;3.77;;;;;;;;;;5032879;28;20202;-80
2022/08/09 05:02:05;;;;;;;4.20;3.00;;;;;;;;;;5032556;28;20197;-80
2022/08/09 05:04:33;;;;;;;3.47;3.17;;;;;;;;;;5032054;28;20206;-80
2022/08/09 05:07:00;;;;;;;2.97;2.77;;;;;;;;;;5031779;28;20198;-79
2022/08/09 05:09:29;;;;;;;6.40;3.20;;;;;;;;;;5046326;28;20197;-79
2022/08/09 05:11:56;;;;;;;3.33;3.13;;;;;;;;;;5034032;28;20248;-79
2022/08/09 05:14:23;;;;;;;5.90;3.13;;;;;;;;;;5031756;28;20222;-79
2022/08/09 05:16:50;;;;;;;4.33;3.13;;;;;;;;;;5031596;28;20199;-80
2022/08/09 05:19:20;;;;;;;4.67;3.30;;;;;;;;;;5031675;28;20195;-80
2022/08/09 05:21:48;;;;;;;2.93;2.73;;;;;;;;;;5031555;28;20565;-80
2022/08/09 05:24:15;;;;;;;3.80;3.50;;;;;;;;;;5031397;28;20679;-80
2022/08/09 05:26:42;;;;;;;3.33;3.03;;;;;;;;;;5031735;28;20601;-79
2022/08/09 05:29:10;;;;;;;5.03;3.07;;;;;;;;;;5032070;28;20214;-80
2022/08/09 05:31:36;;;;;;;8.50;3.27;;;;;;;;;;5031476;28;20195;-80
2022/08/09 05:34:06;;;;;;;3.33;2.90;;;;;;;;;;5031712;28;20218;-79
2022/08/09 05:36:32;;;;;;;3.93;3.00;;;;;;;;;;5031730;28;20672;-80
2022/08/09 05:39:00;;;;;;;3.23;2.87;;;;;;;;;;5030653;28;20194;-80
2022/08/09 05:41:27;;;;;;;4.60;3.53;;;;;;;;;;5032309;28;20232;-79
2022/08/09 05:43:54;;;;;;;4.47;3.00;;;;;;;;;;5031498;28;20620;-81
2022/08/09 05:46:21;;;;;;;6.27;2.97;;;;;;;;;;5031983;28;20199;-80
2022/08/09 05:48:47;;;;;;;3.50;3.20;;;;;;;;;;5030984;28;20199;-80
2022/08/09 05:51:14;;;;;;;6.63;3.37;;;;;;;;;;5030716;28;20207;-80
2022/08/09 05:53:41;;;;;;;10.33;3.27;;;;;;;;;;5030699;28;20218;-80
2022/08/09 05:56:10;;;;;;;13.00;3.50;;;;;;;;;;5031537;28;20210;-80
2022/08/09 05:58:36;;;;;;;5.90;3.37;;;;;;;;;;5031340;28;20214;-81
2022/08/09 06:01:03;;;;;;;6.47;3.20;;;;;;;;;;5031649;28;20202;-79
2022/08/09 06:03:30;;;;;;;5.00;3.37;;;;;;;;;;5030930;28;20199;-81
2022/08/09 06:05:57;;;;;;;4.00;3.10;;;;;;;;;;5031327;28;20202;-80
2022/08/09 06:08:24;;;;;;;2.90;2.70;;;;;;;;;;5030806;28;20199;-79
2022/08/09 06:10:50;;;;;;;5.13;2.83;;;;;;;;;;5030646;28;20222;-81
2022/08/09 06:13:18;;;;;;;3.87;3.47;;;;;;;;;;5031419;28;20202;-80
2022/08/09 06:15:46;;;;;;;4.30;2.83;;;;;;;;;;5030207;28;20225;-80
2022/08/09 06:18:12;;;;;;;3.20;2.97;;;;;;;;;;5036086;28;20194;-80
2022/08/09 06:20:40;;;;;;;4.93;2.97;;;;;;;;;;5045192;28;20198;-81
2022/08/09 06:23:07;;;;;;;6.83;3.00;;;;;;;;;;5031915;28;20265;-81
2022/08/09 06:25:34;;;;;;;6.93;2.83;;;;;;;;;;5030324;28;20573;-81
2022/08/09 06:28:01;;;;;;;3.00;2.73;;;;;;;;;;5031304;28;20198;-80
2022/08/09 06:30:29;;;;;;;6.72;2.55;;;;;;;;;;5030859;28;20211;-81
2022/08/09 06:32:56;;;;;;;2.97;2.37;;;;;;;;;;5031161;28;20199;-80
2022/08/09 06:35:23;;;;;;;6.07;3.17;;;;;;;;;;5030961;28;20234;-80
2022/08/09 06:37:50;;;;;;;2.83;2.53;;;;;;;;;;5030610;28;20203;-80
2022/08/09 06:40:17;;;;;;;9.88;2.60;;;;;;;;;;5030691;28;20253;-80
2022/08/09 06:42:44;;;;;;;2.50;2.30;;;;;;;;;;5030712;28;20209;-81
2022/08/09 06:45:11;;;;;;;3.03;2.58;;;;;;;;;;5031480;28;20218;-80
2022/08/09 06:47:39;;;;;;;2.40;2.20;;;;;;;;;;5031244;28;20190;-81
2022/08/09 06:50:07;;;;;;;3.38;2.92;;;;;;;;;;5030463;28;20195;-80
2022/08/09 06:52:34;;;;;;;4.30;2.90;;;;;;;;;;5030905;28;20199;-80
2022/08/09 06:55:00;;;;;;;4.38;2.97;;;;;;;;;;5030549;28;20226;-80
2022/08/09 06:57:27;;;;;;;4.63;3.08;;;;;;;;;;5039275;28;20206;-81
2022/08/09 06:59:55;;;;;;;5.18;2.83;;;;;;;;;;5030376;28;20198;-81
2022/08/09 07:02:22;;;;;;;4.10;2.80;;;;;;;;;;5030907;28;20669;-80
2022/08/09 07:04:50;;;;;;;3.75;2.35;;;;;;;;;;5050838;28;20585;-80
2022/08/09 07:07:16;;;;;;;4.63;3.00;;;;;;;;;;5034471;28;20202;-80
2022/08/09 07:09:43;;;;;;;2.50;2.30;;;;;;;;;;5030450;28;20218;-81
2022/08/09 07:12:11;;;;;;;3.50;2.63;;;;;;;;;;5030179;28;20581;-81
2022/08/09 07:14:37;;;;;;;3.50;2.53;;;;;;;;;;5030206;28;20225;-82
2022/08/09 07:17:04;;;;;;;3.30;2.80;;;;;;;;;;5031104;28;20289;-79
2022/08/09 07:19:31;;;;;;;5.13;3.30;;;;;;;;;;5030349;28;20206;-80
2022/08/09 07:22:00;;;;;;;4.82;3.00;;;;;;;;;;5041374;28;20205;-80
2022/08/09 07:24:29;;;;;;;4.15;3.58;;;;;;;;;;5041174;28;20222;-80
2022/08/09 07:26:56;;;;;;;4.50;3.42;;;;;;;;;;5033849;28;20740;-80
2022/08/09 07:29:23;;;;;;;4.70;2.85;;;;;;;;;;5044677;28;20221;-81
2022/08/09 07:31:50;;;;;;;3.45;3.13;;;;;;;;;;5045616;28;20197;-81
2022/08/09 07:34:17;;;;;;;4.20;2.80;;;;;;;;;;5046343;28;20221;-81
2022/08/09 07:36:44;;;;;;;4.72;2.88;;;;;;;;;;5033947;28;20194;-81
2022/08/09 07:39:12;;;;;;;4.75;3.30;;;;;;;;;;5033684;28;20229;-81
2022/08/09 07:41:39;;;;;;;5.50;3.95;;;;;;;;;;5033919;28;20341;-81
2022/08/09 07:44:06;;;;;;;9.68;2.92;;;;;;;;;;5034161;28;20206;-81
2022/08/09 07:46:33;;;;;;;5.68;2.90;;;;;;;;;;5035420;28;20199;-80
2022/08/09 07:49:00;;;;;;;3.20;2.90;;;;;;;;;;5034316;28;20210;-80
2022/08/09 07:51:27;;;;;;;5.03;3.35;;;;;;;;;;5034723;28;20198;-81
2022/08/09 07:53:54;;;;;;;4.07;2.97;;;;;;;;;;5032711;28;20219;-80
2022/08/09 07:56:24;;;;;;;3.08;2.55;;;;;;;;;;5033168;28;20550;-79
2022/08/09 07:58:51;;;;;;;4.95;2.92;;;;;;;;;;5033388;28;20202;-80
2022/08/09 08:01:18;;;;;;;2.97;2.70;;;;;;;;;;5032964;28;20202;-81
2022/08/09 08:03:44;;;;;;;2.78;2.58;;;;;;;;;;5033557;28;20202;-80
2022/08/09 08:06:11;;;;;;;5.00;2.70;;;;;;;;;;5033440;28;20214;-81
2022/08/09 08:08:38;;;;;;;3.88;3.15;;;;;;;;;;5053024;28;20206;-81
2022/08/09 08:11:05;;;;;;;3.38;2.70;;;;;;;;;;5054360;28;20229;-81
2022/08/09 08:13:33;;;;;;;10.13;3.40;;;;;;;;;;5053648;28;20730;-80
2022/08/09 08:16:00;;;;;;;2.67;2.47;;;;;;;;;;5053443;28;20229;-81
2022/08/09 08:18:27;;;;;;;4.82;2.80;;;;;;;;;;5046245;28;20198;-81
2022/08/09 08:20:53;;;;;;;7.10;2.90;;;;;;;;;;5032916;28;20688;-80
2022/08/09 08:23:20;;;;;;;9.18;3.50;;;;;;;;;;5032915;28;20198;-80
2022/08/09 08:25:48;;;;;;;4.85;3.60;;;;;;;;;;5033386;28;20203;-81
2022/08/09 08:28:16;;;;;;;5.57;3.05;;;;;;;;;;5031995;28;20209;-81
2022/08/09 08:30:44;;;;;;;7.95;3.65;;;;;;;;;;5037767;28;20200;-80
2022/08/09 08:33:11;;;;;;;6.18;3.03;;;;;;;;;;5043639;28;20551;-81
2022/08/09 08:35:38;;;;;;;3.05;2.80;;;;;;;;;;5041159;28;20294;-80
2022/08/09 08:38:05;;;;;;;3.17;2.90;;;;;;;;;;5033024;28;20198;-81
2022/08/09 08:40:32;;;;;;;5.13;3.65;;;;;;;;;;5032192;28;20194;-82
2022/08/09 08:43:01;;;;;;;5.60;2.70;;;;;;;;;;5032326;28;20199;-81
2022/08/09 08:45:33;;;;;;;6.90;3.08;;;;;;;;;;5032910;28;20187;-81
2022/08/09 08:48:01;;;;;;;15.18;4.38;;;;;;;;;;5032808;28;20209;-81
2022/08/09 08:50:28;;;;;;;3.78;3.00;;;;;;;;;;5032771;28;20311;-81
2022/08/09 08:52:55;;;;;;;4.57;3.28;;;;;;;;;;5032268;28;20264;-80
2022/08/09 08:55:22;;;;;;;7.07;2.60;;;;;;;;;;5032043;28;20230;-81
2022/08/09 08:57:49;;;;;;;5.28;2.33;;;;;;;;;;5048118;28;20202;-81
2022/08/09 09:00:16;;;;;;;3.17;2.83;;;;;;;;;;5032230;28;20259;-81
2022/08/09 09:02:44;;;;;;;4.70;3.25;;;;;;;;;;5032038;28;20209;-80
2022/08/09 09:05:13;;;;;;;3.35;2.40;;;;;;;;;;5031967;28;20199;-81
2022/08/09 09:07:43;;;;;;;3.58;2.60;;;;;;;;;;5032608;28;20593;-81
2022/08/09 09:10:11;;;;;;;4.85;2.40;;;;;;;;;;5031985;28;20240;-81
2022/08/09 09:12:38;;;;;;;8.48;2.60;;;;;;;;;;5032268;28;20226;-81
2022/08/09 09:15:06;;;;;;;3.28;2.10;;;;;;;;;;5031462;28;20218;-81
2022/08/09 09:17:35;;;;;;;2.75;2.38;;;;;;;;;;5032663;28;20202;-81
2022/08/09 09:20:02;;;;;;;4.05;2.05;;;;;;;;;;5030944;28;20302;-81
2022/08/09 09:22:49;;;;;;;3.50;2.20;;;;;;;;;;5031911;28;20669;-81
2022/08/09 09:25:30;;;;;;;4.15;2.63;;;;;;;;;;5031658;28;20566;-82
2022/08/09 09:27:57;;;;;;;2.60;2.40;;;;;;;;;;5031167;28;20237;-82
2022/08/09 09:30:24;;;;;;;7.03;2.35;;;;;;;;;;5031513;28;20211;-81
2022/08/09 09:33:04;;;;;;;2.90;2.47;;;;;;;;;;5032307;28;20198;-81
2022/08/09 09:35:32;;;;;;;5.90;2.50;;;;;;;;;;5032112;28;20598;-80
2022/08/09 09:38:00;;;;;;;2.15;2.00;;;;;;;;;;5031990;28;20556;-80
2022/08/09 09:40:43;;;;;;;3.92;1.98;;;;;;;;;;5030739;28;20201;-81
2022/08/09 09:43:10;;;;;;;2.53;1.88;;;;;;;;;;5031450;28;20360;-81
2022/08/09 09:45:50;;;;;;;2.00;1.80;;;;;;;;;;5032065;28;20245;-81
2022/08/09 09:48:18;;;;;;;5.38;2.25;;;;;;;;;;5030565;28;20202;-81
2022/08/09 09:50:46;;;;;;;4.88;2.88;;;;;;;;;;5030866;28;20206;-81
2022/08/09 09:53:19;;;;;;;3.80;2.22;;;;;;;;;;5031696;28;20194;-81
2022/08/09 09:55:51;;;;;;;3.45;1.75;;;;;;;;;;5040106;28;20256;-83
2022/08/09 09:58:18;;;;;;;2.35;2.13;;;;;;;;;;5051533;28;20225;-81
2022/08/09 10:00:45;;;;;;;2.70;1.95;;;;;;;;;;5043604;28;20321;-81
2022/08/09 10:03:13;;;;;;;2.55;2.17;;;;;;;;;;5031075;28;20199;-81
2022/08/09 10:05:58;;;;;;;3.08;2.20;;;;;;;;;;5030795;28;20202;-81
2022/08/09 10:08:26;;;;;;;4.13;2.40;;;;;;;;;;5030940;28;20575;-81
2022/08/09 10:10:53;;;;;;;2.60;2.38;;;;;;;;;;5030936;28;20229;-81
2022/08/09 10:13:20;;;;;;;2.17;1.83;;;;;;;;;;5030713;28;20276;-81
2022/08/09 10:15:49;;;;;;;3.97;2.00;;;;;;;;;;5030763;28;20230;-81
2022/08/09 10:18:16;;;;;;;3.58;2.00;;;;;;;;;;5031900;28;20222;-81
2022/08/09 10:20:42;;;;;;;2.67;1.98;;;;;;;;;;5030805;28;20736;-80
2022/08/09 10:23:17;;;;;;;2.13;2.03;;;;;;;;;;5031780;28;20202;-81
2022/08/09 10:25:48;;;;;;;2.65;2.17;;;;;;;;;;5029513;28;20205;-81
2022/08/09 10:28:15;;;;;;;3.45;2.00;;;;;;;;;;5032360;28;20202;-81
2022/08/09 10:30:42;;;;;;;2.38;2.03;;;;;;;;;;5046851;28;20204;-80
2022/08/09 10:33:09;;;;;;;5.13;2.30;;;;;;;;;;5033567;28;20249;-80
2022/08/09 10:35:36;;;;;;;5.25;2.30;;;;;;;;;;5051493;28;20240;-80
2022/08/09 10:38:03;;;;;;;1.75;1.65;;;;;;;;;;5041843;28;20297;-80
2022/08/09 10:40:30;;;;;;;1.95;1.85;;;;;;;;;;5031158;28;20206;-80
2022/08/09 10:42:58;;;;;;;4.45;2.42;;;;;;;;;;5030899;28;20206;-80
2022/08/09 10:45:25;;;;;;;4.93;2.45;;;;;;;;;;5030870;28;20205;-81
2022/08/09 10:48:01;;;;;;;2.50;2.30;;;;;;;;;;5030602;28;20194;-80
2022/08/09 10:53:20;;;;;;;5.38;2.40;;;;;;;;;;5030913;28;20205;-80
2022/08/09 10:55:47;;;;;;;5.78;2.00;;;;;;;;;;5032986;28;20226;-81
2022/08/09 11:01:38;;;;;;;5.30;2.40;;;;;;;;;;5104586;27;1318085;-82
2022/08/09 11:04:12;;;;;;;4.57;2.38;;;;;;;;;;5129146;28;20247;-82
2022/08/09 11:06:40;;;;;;;5.18;2.10;;;;;;;;;;5129126;28;20610;-81
2022/08/09 11:09:08;;;;;;;2.70;2.20;;;;;;;;;;5129100;28;20608;-82
2022/08/09 11:12:08;;;;;;;2.13;2.00;;;;;;;;;;5129288;28;20195;-81
2022/08/09 11:14:37;;;;;;;3.72;2.22;;;;;;;;;;5128793;28;20183;-82
2022/08/09 11:17:49;;;;;;;4.00;2.35;;;;;;;;;;5128866;28;20745;-81
2022/08/09 11:20:18;;;;;;;2.58;2.05;;;;;;;;;;5128768;28;20264;-81
2022/08/09 11:23:01;;;;;;;4.22;2.15;;;;;;;;;;5129515;28;20199;-81
2022/08/09 11:25:54;;;;;;;2.67;2.00;;;;;;;;;;5125423;28;20191;-81
2022/08/09 11:28:33;;;;;;;4.47;2.03;;;;;;;;;;5091927;28;20198;-81
2022/08/09 11:31:01;;;;;;;6.78;2.28;;;;;;;;;;5128549;28;20645;-81
2022/08/09 11:33:43;;;;;;;4.28;2.55;;;;;;;;;;5129617;28;20194;-81
2022/08/09 11:36:12;;;;;;;8.13;2.38;;;;;;;;;;5127649;28;20205;-81
2022/08/09 11:38:39;;;;;;;7.18;2.38;;;;;;;;;;5129339;28;20245;-81
2022/08/09 11:41:28;;;;;;;10.77;2.72;;;;;;;;;;5128774;28;20214;-81
2022/08/09 11:43:55;;;;;;;14.40;3.20;;;;;;;;;;5128947;28;20191;-81
2022/08/09 11:46:22;;;;;;;12.80;2.90;;;;;;;;;;5129016;28;20194;-81
2022/08/09 11:48:50;;;;;;;7.82;2.85;;;;;;;;;;5127931;28;20207;-81
2022/08/09 11:51:19;;;;;;;5.38;2.70;;;;;;;;;;5128637;28;20201;-81
2022/08/09 11:53:47;;;;;;;2.50;2.30;;;;;;;;;;5128545;28;20194;-82
2022/08/09 11:56:26;;;;;;;6.85;2.75;;;;;;;;;;5128776;28;20194;-81
2022/08/09 11:58:56;;;;;;;11.48;2.88;;;;;;;;;;5111477;28;20218;-82
2022/08/09 12:01:42;;;;;;;6.55;2.90;;;;;;;;;;5128222;28;20195;-81
2022/08/09 12:04:10;;;;;;;4.72;2.50;;;;;;;;;;5127924;28;20199;-82
2022/08/09 12:06:39;;;;;;;8.70;2.33;;;;;;;;;;5128122;28;20191;-82
2022/08/09 12:09:08;;;;;;;4.63;2.30;;;;;;;;;;5127550;28;20186;-81
2022/08/09 12:11:36;;;;;;;2.40;2.20;;;;;;;;;;5120433;28;20203;-81
2022/08/09 12:14:05;;;;;;;2.00;1.73;;;;;;;;;;5115981;28;20199;-81
2022/08/09 12:16:36;;;;;;;3.75;2.33;;;;;;;;;;5115729;28;20222;-81
2022/08/09 12:19:04;;;;;;;4.88;2.30;;;;;;;;;;5113435;28;20207;-81
2022/08/09 12:21:34;;;;;;;4.60;2.55;;;;;;;;;;5114384;28;20199;-80
2022/08/09 12:24:05;;;;;;;7.25;3.42;;;;;;;;;;5113984;28;20204;-81
2022/08/09 12:26:43;;;;;;;10.25;4.18;;;;;;;;;;5114033;28;20199;-81
2022/08/09 12:29:15;;;;;;;15.15;3.08;;;;;;;;;;5113922;28;22662;-81
2022/08/09 12:31:42;;;;;;;5.43;2.70;;;;;;;;;;5114024;28;20627;-81
2022/08/09 12:34:09;;;;;;;5.07;2.17;;;;;;;;;;5113580;28;20613;-81
2022/08/09 12:36:49;;;;;;;13.50;2.75;;;;;;;;;;5114249;28;20692;-81
2022/08/09 12:39:20;;;;;;;2.72;2.28;;;;;;;;;;5113060;28;20569;-82
2022/08/09 12:41:49;;;;;;;2.53;2.33;;;;;;;;;;5114675;28;20221;-81
2022/08/09 12:44:16;;;;;;;5.88;1.80;;;;;;;;;;5114433;28;20275;-81
2022/08/09 12:46:46;;;;;;;3.35;2.00;;;;;;;;;;5114221;28;20665;-81
2022/08/09 12:49:14;;;;;;;2.95;2.60;;;;;;;;;;5114046;28;20223;-81
2022/08/09 12:51:40;;;;;;;5.80;2.15;;;;;;;;;;5114164;28;20202;-81
2022/08/09 12:54:08;;;;;;;3.42;2.15;;;;;;;;;;5114639;28;20658;-81
2022/08/09 12:56:48;;;;;;;2.95;2.30;;;;;;;;;;5112741;28;20198;-81
2022/08/09 12:59:16;;;;;;;5.75;2.10;;;;;;;;;;5113557;28;20223;-81
2022/08/09 13:01:44;;;;;;;3.80;2.72;;;;;;;;;;5114190;28;20200;-81
2022/08/09 13:04:13;;;;;;;6.53;2.60;;;;;;;;;;5113907;28;20635;-81
2022/08/09 13:06:43;;;;;;;4.18;2.60;;;;;;;;;;5113961;28;20670;-80
2022/08/09 13:09:12;;;;;;;16.67;4.60;;;;;;;;;;5114499;28;20195;-81
2022/08/09 13:11:40;;;;;;;4.07;2.50;;;;;;;;;;5114449;28;20252;-81
2022/08/09 13:14:15;;;;;;;3.10;2.30;;;;;;;;;;5113969;28;20205;-81
2022/08/09 13:16:45;;;;;;;4.65;2.45;;;;;;;;;;5113823;28;20203;-81
2022/08/09 13:19:25;;;;;;;3.13;2.20;;;;;;;;;;5112412;28;20236;-81
2022/08/09 13:22:10;;;;;;;2.47;2.00;;;;;;;;;;5114517;28;20221;-81
2022/08/09 13:24:37;;;;;;;3.15;2.40;;;;;;;;;;5113161;28;20199;-80
2022/08/09 13:27:04;;;;;;;7.03;2.75;;;;;;;;;;5113967;28;20210;-80
2022/08/09 13:29:32;;;;;;;3.28;2.78;;;;;;;;;;5113589;28;20195;-81
2022/08/09 13:32:00;;;;;;;5.13;2.78;;;;;;;;;;5113868;28;20195;-81
2022/08/09 13:34:29;;;;;;;5.43;3.28;;;;;;;;;;5113454;28;20291;-80
2022/08/09 13:36:57;;;;;;;5.15;2.75;;;;;;;;;;5111359;28;20615;-81
2022/08/09 13:39:24;;;;;;;2.85;2.50;;;;;;;;;;5112383;28;20762;-81
2022/08/09 13:41:50;;;;;;;5.22;2.80;;;;;;;;;;5112474;28;20223;-81
2022/08/09 13:44:17;;;;;;;13.65;3.60;;;;;;;;;;5112330;28;20207;-81
2022/08/09 13:46:46;;;;;;;5.05;2.67;;;;;;;;;;5111876;28;20196;-80
2022/08/09 13:49:13;;;;;;;6.20;2.65;;;;;;;;;;5112730;28;20617;-81
2022/08/09 13:51:40;;;;;;;13.88;3.47;;;;;;;;;;5112885;28;20203;-81
2022/08/09 13:54:07;;;;;;;5.55;3.13;;;;;;;;;;5112433;28;20188;-80
2022/08/09 13:56:33;;;;;;;2.92;2.70;;;;;;;;;;5112792;28;20199;-81
2022/08/09 13:59:00;;;;;;;5.25;2.70;;;;;;;;;;5111782;28;20199;-81
2022/08/09 14:01:27;;;;;;;2.58;2.38;;;;;;;;;;5113066;28;20241;-80
2022/08/09 14:03:55;;;;;;;3.15;2.95;;;;;;;;;;5112167;28;20195;-81
2022/08/09 14:06:22;;;;;;;2.80;2.50;;;;;;;;;;5112120;28;20199;-81
2022/08/09 14:08:49;;;;;;;2.50;2.20;;;;;;;;;;5112315;28;20188;-81
2022/08/09 14:11:16;;;;;;;5.28;2.72;;;;;;;;;;5111614;28;20194;-81
2022/08/09 14:13:43;;;;;;;3.00;2.80;;;;;;;;;;5111524;28;20627;-82
2022/08/09 14:16:12;;;;;;;5.75;2.45;;;;;;;;;;5111826;28;20210;-80
2022/08/09 14:18:40;;;;;;;9.32;2.58;;;;;;;;;;5112313;28;20218;-81
2022/08/09 14:21:09;;;;;;;20.25;3.95;;;;;;;;;;5111414;28;20632;-81
2022/08/09 14:23:37;;;;;;;22.77;5.25;;;;;;;;;;5112250;28;20255;-80
2022/08/09 14:26:04;;;;;;;14.20;4.53;;;;;;;;;;5112883;28;20565;-80
2022/08/09 14:28:31;;;;;;;16.10;4.55;;;;;;;;;;5111097;28;20196;-81
2022/08/09 14:30:58;;;;;;;12.85;3.35;;;;;;;;;;5111055;28;20268;-80
2022/08/09 14:33:24;;;;;;;6.03;3.30;;;;;;;;;;5112079;28;20187;-81
2022/08/09 14:35:51;;;;;;;4.75;2.78;;;;;;;;;;5111182;28;20198;-82
2022/08/09 14:38:21;;;;;;;10.20;3.22;;;;;;;;;;5111397;28;20214;-81
2022/08/09 14:40:49;;;;;;;5.70;3.67;;;;;;;;;;5111602;28;20212;-80
2022/08/09 14:43:16;;;;;;;5.22;3.42;;;;;;;;;;5109805;28;20207;-80
2022/08/09 14:45:43;;;;;;;4.03;3.47;;;;;;;;;;5086375;28;20199;-81
2022/08/09 14:48:10;;;;;;;3.38;2.97;;;;;;;;;;5107838;28;20199;-80
2022/08/09 14:50:37;;;;;;;4.82;3.20;;;;;;;;;;5111083;28;20602;-87
2022/08/09 14:53:07;;;;;;;5.78;3.47;;;;;;;;;;5112177;28;20270;-87
2022/08/09 14:55:35;;;;;;;4.25;3.10;;;;;;;;;;5111705;28;20195;-86
2022/08/09 14:58:03;;;;;;;3.30;3.05;;;;;;;;;;5113550;28;20603;-86
2022/08/09 15:00:30;;;;;;;4.15;3.50;;;;;;;;;;5110782;28;20689;-86
2022/08/09 15:02:57;;;;;;;3.97;3.58;;;;;;;;;;5111420;28;20192;-87